Fairview, New Mexico
Current Conditions -  °F | °C
As of 10:15 AM on Friday 24 Oct 2014 (Local Time) from KLAM Reporting Station
Clear Clear  
Wind Chill: 55°   Ceiling: Unl
Heat Index: 55°   Visibility: 10mi
Dew Point: 32°   Wind: 3mph
Humidity: 42%   Direction: 50°NE
Pressure: 30.43"   Gusts: NA
Location:  36.0007°N, 106.072°W
Report Text: KLAM 241615Z AUTO 05003KT 10SM CLR 13/00 A3043 RMK AO2 T01270000
Loading
Personal Weather Stations






























Interactive Weather Map
Tropical Storm Tracking
New forecast layout! Learn more

10-Day Weather Forecast

Advertisements
Track Severe Weather on mobile